createdAt,value
2023-05-09T00:04:57.921Z,840.38
2023-05-09T00:10:00.885Z,841.38
2023-05-09T00:15:10.069Z,849.40
2023-05-09T00:20:13.442Z,842.63
2023-05-09T00:25:15.455Z,842.60
2023-05-09T00:30:18.719Z,834.35
2023-05-09T00:35:21.900Z,830.17
2023-05-09T00:40:23.876Z,835.83
2023-05-09T00:45:26.595Z,829.83
2023-05-09T00:50:31.448Z,845.30
2023-05-09T00:55:33.917Z,843.00
2023-05-09T01:00:37.155Z,841.15
2023-05-09T01:06:18.024Z,851.25
2023-05-09T01:12:01.980Z,833.80
2023-05-09T01:17:07.740Z,844.33
2023-05-09T01:27:30.606Z,828.13
2023-05-09T01:32:36.516Z,843.20
2023-05-09T01:37:42.401Z,836.17
2023-05-09T01:43:03.865Z,852.10
2023-05-09T01:48:09.660Z,832.35
2023-05-09T01:53:20.674Z,844.92
2023-05-09T01:58:24.894Z,828.85
2023-05-09T02:03:28.019Z,825.20
2023-05-09T02:08:41.137Z,821.10
2023-05-09T02:13:43.447Z,814.70
2023-05-09T02:18:45.837Z,840.90
2023-05-09T02:23:47.871Z,826.13
2023-05-09T02:28:51.269Z,829.53
2023-05-09T02:33:54.624Z,832.92
2023-05-09T02:38:57.713Z,830.00
2023-05-09T02:43:59.658Z,825.70
2023-05-09T02:49:01.510Z,828.22
2023-05-09T02:54:03.792Z,820.50
2023-05-09T02:59:07.377Z,822.50
2023-05-09T03:04:09.283Z,825.40
2023-05-09T03:09:11.555Z,834.33
2023-05-09T03:14:15.354Z,831.50
2023-05-09T03:19:17.840Z,827.00
2023-05-09T03:24:20.850Z,835.17
2023-05-09T03:29:23.149Z,826.70
2023-05-09T03:34:25.744Z,831.20
2023-05-09T03:39:28.443Z,831.55
2023-05-09T03:44:32.216Z,823.50
2023-05-09T03:49:35.406Z,820.17
2023-05-09T03:54:38.141Z,827.50
2023-05-09T03:59:46.336Z,827.50
2023-05-09T04:04:53.642Z,806.25
2023-05-09T04:09:58.162Z,806.30
2023-05-09T04:15:00.469Z,795.55
2023-05-09T04:20:03.124Z,805.03
2023-05-09T04:25:07.350Z,808.72
2023-05-09T04:30:10.510Z,797.22
2023-05-09T04:35:14.181Z,796.83
2023-05-09T04:40:28.509Z,804.03
2023-05-09T04:45:39.958Z,798.80
2023-05-09T04:50:42.312Z,804.03
2023-05-09T04:55:51.977Z,802.85
2023-05-09T05:00:54.686Z,814.20
2023-05-09T05:05:57.351Z,799.70
2023-05-09T05:11:00.479Z,800.13
2023-05-09T05:16:04.757Z,828.88
2023-05-09T05:21:07.283Z,829.20
2023-05-09T05:26:09.767Z,820.40
2023-05-09T05:31:21.467Z,825.97
2023-05-09T05:36:23.381Z,823.10
2023-05-09T05:41:27.103Z,834.72
2023-05-09T05:46:29.243Z,830.17
2023-05-09T05:51:31.455Z,823.92
2023-05-09T05:56:33.910Z,845.20
2023-05-09T06:01:36.325Z,834.60
2023-05-09T06:06:38.580Z,850.25
2023-05-09T06:11:40.645Z,853.65
2023-05-09T06:16:43.192Z,841.05
2023-05-09T06:21:45.482Z,847.28
2023-05-09T06:26:47.436Z,850.67
2023-05-09T06:31:56.570Z,860.47
2023-05-09T06:36:58.918Z,868.97
2023-05-09T06:42:01.268Z,874.38
2023-05-09T06:47:07.255Z,869.37
2023-05-09T06:52:09.436Z,878.90
2023-05-09T06:57:19.065Z,866.65
2023-05-09T07:02:21.670Z,878.60
2023-05-09T07:07:24.585Z,869.40
2023-05-09T07:12:27.105Z,879.83
2023-05-09T07:17:30.534Z,882.80
2023-05-09T07:22:34.183Z,874.88
2023-05-09T07:27:39.054Z,872.33
2023-05-09T07:32:41.317Z,876.75
2023-05-09T07:37:43.244Z,863.15
2023-05-09T07:42:49.751Z,868.88
2023-05-09T07:48:00.600Z,877.67
2023-05-09T07:53:07.104Z,868.67
2023-05-09T07:58:08.977Z,880.37
2023-05-09T08:03:11.225Z,884.05
2023-05-09T08:08:13.206Z,877.13
2023-05-09T08:13:15.113Z,883.67
2023-05-09T08:18:17.159Z,870.83
2023-05-09T08:23:20.702Z,879.80
2023-05-09T08:28:43.156Z,863.85
2023-05-09T08:33:45.003Z,859.95
2023-05-09T08:38:47.492Z,865.40
2023-05-09T08:43:49.873Z,866.78
2023-05-09T08:48:53.371Z,857.45
2023-05-09T08:53:57.202Z,861.50
2023-05-09T08:59:05.819Z,849.80
2023-05-09T09:04:09.092Z,849.22
2023-05-09T09:09:12.961Z,849.17
2023-05-09T09:14:22.905Z,842.55
2023-05-09T09:19:31.217Z,861.90
2023-05-09T09:24:34.324Z,865.22
2023-05-09T09:29:39.225Z,862.53
2023-05-09T09:34:42.091Z,874.00
2023-05-09T09:39:55.044Z,878.00
2023-05-09T09:45:03.095Z,881.80
2023-05-09T09:50:25.091Z,863.10
2023-05-09T09:55:27.568Z,864.53
2023-05-09T10:00:30.741Z,860.58
2023-05-09T10:05:40.894Z,857.85
2023-05-09T10:10:43.747Z,858.22
2023-05-09T10:15:54.156Z,845.53
2023-05-09T10:21:03.652Z,849.92
2023-05-09T10:26:17.582Z,845.17
2023-05-09T10:31:28.208Z,828.83
2023-05-09T10:36:30.455Z,833.85
2023-05-09T10:41:32.964Z,834.58
2023-05-09T10:46:36.126Z,833.97
2023-05-09T10:51:38.142Z,817.72
2023-05-09T10:56:39.998Z,815.42
2023-05-09T11:01:41.921Z,829.20
2023-05-09T11:06:52.295Z,837.17
2023-05-09T11:12:09.774Z,830.55
2023-05-09T11:17:13.684Z,820.83
2023-05-09T11:22:16.556Z,821.58
2023-05-09T11:27:23.289Z,814.63
2023-05-09T11:32:34.400Z,824.25
2023-05-09T11:37:47.100Z,830.95
2023-05-09T11:42:55.498Z,812.88
2023-05-09T11:48:03.954Z,819.22
2023-05-09T11:53:10.968Z,824.20
2023-05-09T11:58:15.530Z,825.78
2023-05-09T12:03:17.927Z,825.42
2023-05-09T12:08:21.553Z,823.35
2023-05-09T12:13:23.508Z,836.92
2023-05-09T12:18:31.887Z,827.22
2023-05-09T12:23:37.317Z,815.28
2023-05-09T12:28:39.715Z,825.00
2023-05-09T12:33:44.309Z,839.90
2023-05-09T12:38:54.962Z,822.15
2023-05-09T12:43:56.924Z,831.45
2023-05-09T12:49:00.652Z,844.80
2023-05-09T12:54:04.924Z,826.17
2023-05-09T12:59:13.407Z,831.63
2023-05-09T13:04:21.445Z,817.47
2023-05-09T13:09:27.969Z,810.60
2023-05-09T13:14:30.408Z,825.03
2023-05-09T13:19:34.832Z,812.83
2023-05-09T13:24:39.693Z,826.10
2023-05-09T13:29:41.564Z,819.83
2023-05-09T13:34:51.595Z,816.17
2023-05-09T13:39:54.592Z,808.33
2023-05-09T13:44:59.016Z,818.28
2023-05-09T13:50:00.868Z,806.47
2023-05-09T13:55:02.806Z,820.03
2023-05-09T14:00:09.954Z,829.08
2023-05-09T14:05:14.769Z,832.88
2023-05-09T14:10:25.962Z,842.85
2023-05-09T14:15:30.054Z,843.70
2023-05-09T14:20:39.984Z,840.92
2023-05-09T14:25:42.403Z,835.90
2023-05-09T14:30:55.129Z,802.28
2023-05-09T14:36:04.770Z,819.67
2023-05-09T14:41:07.774Z,828.13
2023-05-09T14:46:10.757Z,815.63
2023-05-09T14:51:13.035Z,807.20
2023-05-09T14:56:14.876Z,804.13
2023-05-09T15:01:19.734Z,812.47
2023-05-09T15:06:23.454Z,816.20
2023-05-09T15:11:28.485Z,818.95
2023-05-09T15:16:34.478Z,813.55
2023-05-09T15:21:36.500Z,829.17
2023-05-09T15:26:38.597Z,812.80
2023-05-09T15:31:50.050Z,805.08
2023-05-09T15:36:51.934Z,811.47
2023-05-09T15:41:53.994Z,806.45
2023-05-09T15:46:57.055Z,806.83
2023-05-09T15:51:59.540Z,815.05
2023-05-09T15:57:01.503Z,818.72
2023-05-09T16:02:03.483Z,806.50
2023-05-09T16:07:06.575Z,800.92
2023-05-09T16:12:11.904Z,811.33
2023-05-09T16:17:14.010Z,803.17
2023-05-09T16:22:20.031Z,811.33
2023-05-09T16:27:22.303Z,825.13
2023-05-09T16:32:24.160Z,825.78
2023-05-09T16:37:28.785Z,814.25
2023-05-09T16:42:31.785Z,817.97
2023-05-09T16:47:33.745Z,817.47
2023-05-09T16:52:35.682Z,821.15
2023-05-09T16:57:38.969Z,793.25
2023-05-09T17:02:41.846Z,823.58
2023-05-09T17:07:44.707Z,801.85
2023-05-09T17:12:47.940Z,802.25
2023-05-09T17:17:49.880Z,811.75
2023-05-09T17:22:51.836Z,808.22
2023-05-09T17:27:54.086Z,809.60
2023-05-09T17:32:56.048Z,807.97
2023-05-09T17:37:58.972Z,807.42
2023-05-09T17:43:01.165Z,801.55
2023-05-09T17:48:03.436Z,813.25
2023-05-09T17:53:08.917Z,804.65
2023-05-09T17:58:11.063Z,811.33
2023-05-09T18:08:29.878Z,798.20
2023-05-09T18:13:31.732Z,810.05
2023-05-09T18:18:35.325Z,810.45
2023-05-09T18:23:37.434Z,811.10
2023-05-09T18:28:40.638Z,802.55
2023-05-09T18:33:43.674Z,794.28
2023-05-09T18:38:50.362Z,794.72
2023-05-09T18:43:53.127Z,793.08
2023-05-09T18:48:55.358Z,795.10
2023-05-09T18:53:58.015Z,791.63
2023-05-09T18:58:59.878Z,777.75
2023-05-09T19:04:02.685Z,787.95
2023-05-09T19:09:05.687Z,773.92
2023-05-09T19:14:07.977Z,789.50
2023-05-09T19:19:09.864Z,783.67
2023-05-09T19:24:14.483Z,790.45
2023-05-09T19:29:16.734Z,781.20
2023-05-09T19:34:18.990Z,771.83
2023-05-09T19:39:20.902Z,780.72
2023-05-09T19:44:22.771Z,781.00
2023-05-09T19:49:24.638Z,788.15
2023-05-09T19:54:27.509Z,776.33
2023-05-09T19:59:32.169Z,785.42
2023-05-09T20:04:36.449Z,782.85
2023-05-09T20:09:41.768Z,782.55
2023-05-09T20:14:44.415Z,785.67
2023-05-09T20:19:46.297Z,779.88
2023-05-09T20:24:49.336Z,781.63
2023-05-09T20:29:51.388Z,774.75
2023-05-09T20:34:53.264Z,793.05
2023-05-09T20:39:55.082Z,770.15
2023-05-09T20:44:57.585Z,789.17
2023-05-09T20:50:04.630Z,773.15
2023-05-09T21:00:09.061Z,753.47
2023-05-09T21:05:11.389Z,772.03
2023-05-09T21:10:13.634Z,758.60
2023-05-09T21:15:15.909Z,760.15
2023-05-09T21:20:17.976Z,743.20
2023-05-09T21:25:21.390Z,735.33
2023-05-09T21:30:23.262Z,735.20
2023-05-09T21:35:26.634Z,736.80
2023-05-09T21:40:28.666Z,741.67
2023-05-09T21:45:30.539Z,735.95
2023-05-09T21:50:32.414Z,730.80
2023-05-09T21:55:34.486Z,738.40
2023-05-09T22:00:36.350Z,739.90
2023-05-09T22:05:38.197Z,736.70
2023-05-09T22:10:58.521Z,732.95
2023-05-09T22:16:00.909Z,740.97
2023-05-09T22:21:03.438Z,738.67
2023-05-09T22:26:05.428Z,734.83
2023-05-09T22:31:07.316Z,743.45
2023-05-09T22:36:09.671Z,752.25
2023-05-09T22:41:11.952Z,764.20
2023-05-09T22:46:21.643Z,746.33
2023-05-09T22:51:24.002Z,751.67
2023-05-09T22:56:27.375Z,755.60
2023-05-09T23:01:29.312Z,747.05
2023-05-09T23:06:34.086Z,759.35
2023-05-09T23:11:38.872Z,757.90
2023-05-09T23:16:40.869Z,747.85
2023-05-09T23:21:43.804Z,752.40
2023-05-09T23:26:45.698Z,760.20
2023-05-09T23:31:50.228Z,738.33
2023-05-09T23:36:53.129Z,744.95
2023-05-09T23:41:55.024Z,749.53
2023-05-09T23:46:56.934Z,750.08
2023-05-09T23:51:59.241Z,732.38
2023-05-09T23:57:01.103Z,733.25
